Архив погоды в Кумене

Метеограмма Кумены
Четверг, 18 Октября
Время местн. Темп Ветер Видим Явления Облачность нижн/средн/верх Атм. давл. Влжн Точка росы ВНГО R Сост. почвы Tg s
Напр Скр Прв ур.ст ур.м изм
00:00 -0.4° С-З 1 2 10 км - ясно 753 770 +0.2 90% -1.9° более 2.5 км - - - -
Среда, 17 Октября
Время местн. Темп Ветер Видим Явления Облачность нижн/средн/верх Атм. давл. Влжн Точка росы ВНГО R Сост. почвы Tg s
Напр Скр Прв ур.ст ур.м изм
21:00 +1.3° З 1 2 10 км - ясно 753 769 +0.9 83% -1.3° более 2.5 км - - - -
18:00 +4.8° С 2 3 20 км - ясно 752 768 +1.6 65% -1.2° более 2.5 км - - - -
15:00 +7.9° С 4 7 20 км - облачно с прояснениями 750 766 +2.3 54% -0.7° 1 км - - - -
12:00 +8.3° С 6 12 20 км - облачно с прояснениями 748 764 +3.9 58% +0.6° 1 км - - - -
09:00 +9.3° С-З 6 10 24 км - преимущественно облачно 744 760 +1 75% +5.1° - - - - -
06:00 +7.9° З,С-З 4 6 22 км - преимущественно облачно 743 759 -0.2 79% +4.5° - - Влажная (без луж) - -
03:00 +8.2° З 3 6 20 км - ясно 743 759 -0.8 84% +5.6° более 2.5 км - - - -
00:00 +9.7° З 2 5 20 км - облачно 744 760 -1.7 83% +7° более 2.5 км - - - -
Вторник, 16 Октября
Время местн. Темп Ветер Видим Явления Облачность нижн/средн/верх Атм. давл. Влжн Точка росы ВНГО R Сост. почвы Tg s
Напр Скр Прв ур.ст ур.м изм
21:00 +10.1° З 2 4 10 км - облачно 746 762 -1.9 84% +7.6° - - - - -
18:00 +9.3° Ю 1 2 10 км - облачно 747 764 -0.2 93% +8.2° - - - - -
15:00 +10.8° З,Ю-З 2 3 20 км - облачно 748 764 -0.4 86% +8.5° - - - - -
12:00 +8.6° З 3 4 9 км дымка облачно 748 764 +0.1 96% +8° 1 км - - - -
09:00 +7.1° З,С-З 3 5 9 км дымка облачно 748 764 +0.5 98% +6.8° 600 м - - - -
06:00 +6° З 2 3 8 км дымка облачно 747 764 0 99% +5.8° 600 м - Сырая (есть малые или большие лужи) - -
03:00 +7.3° З 1 2 2 км дымка {морось} облачно 747 764 +0.1 94% +6.4° 600 м - - - -
00:00 +8.5° З 3 4 2 км слабая непрерывная морось облачно 747 763 -1.1 95% +7.7° 600 м - - - -
Понедельник, 15 Октября
Время местн. Темп Ветер Видим Явления Облачность нижн/средн/верх Атм. давл. Влжн Точка росы ВНГО R Сост. почвы Tg s
Напр Скр Прв ур.ст ур.м изм
21:00 +5.3° Ю-З 1 2 1 км слабая непрерывная морось облачно 748 765 -0.6 99% +5.1° 600 м - - - -
18:00 +4.2° Ю 2 4 4 км слабая непрерывная морось облачно 749 765 -0.3 97% +3.7° 600 м - - - -
15:00 +3.7° Ю 2 4 6 км слабая непрерывная морось облачно 749 766 -0.2 95% +3° 600 м - - - -
12:00 +2.9° Ю 3 5 6 км слабая непрерывная морось облачно 750 766 -0.3 97% +2.4° 600 м - - - -
09:00 +2.4° Ю,Ю-З 2 5 23 км - облачно 750 766 -0.4 79% -0.9° - - - - -
06:00 +1.3° Ю 2 3 25 км - облачно 750 767 -0.6 83% -1.3° - - Влажная (без луж) - -
03:00 +0.8° Ю-В 2 2 10 км - облачно 751 768 -0.2 85% -1.5° - - - - -
00:00 +0.7° Ю-В 1 2 10 км - облачно 751 768 -0.3 83% -1.9° - - - - -
Воскресенье, 14 Октября
Время местн. Темп Ветер Видим Явления Облачность нижн/средн/верх Атм. давл. Влжн Точка росы ВНГО R Сост. почвы Tg s
Напр Скр Прв ур.ст ур.м изм
21:00 +1.2° Ю 1 1 10 км - облачно 751 768 -0.4 81% -1.7° - - - - -